createdAt,value
2022-12-22T00:02:30.538Z,98986.97
2022-12-22T00:05:16.578Z,98986.72
2022-12-22T00:08:03.556Z,98982.25
2022-12-22T00:10:48.930Z,98973.00
2022-12-22T00:13:35.090Z,98977.31
2022-12-22T00:16:20.039Z,98969.91
2022-12-22T00:19:05.221Z,98962.25
2022-12-22T00:21:50.307Z,98955.47
2022-12-22T00:24:36.892Z,98955.81
2022-12-22T00:27:22.095Z,98952.63
2022-12-22T00:30:07.110Z,98937.38
2022-12-22T00:32:53.985Z,98940.91
2022-12-22T00:35:41.229Z,98939.84
2022-12-22T00:38:32.347Z,98939.94
2022-12-22T00:41:18.653Z,98945.41
2022-12-22T00:44:03.998Z,98941.34
2022-12-22T00:46:49.705Z,98938.28
2022-12-22T00:49:34.954Z,98942.13
2022-12-22T00:52:20.479Z,98935.63
2022-12-22T00:55:05.393Z,98911.16
2022-12-22T00:57:51.807Z,98922.78
2022-12-22T01:00:38.318Z,98915.50
2022-12-22T01:03:23.762Z,98910.31
2022-12-22T01:06:09.181Z,98909.00
2022-12-22T01:08:54.556Z,98911.22
2022-12-22T01:11:39.946Z,98903.44
2022-12-22T01:14:29.093Z,98901.19
2022-12-22T01:17:14.194Z,98902.91
2022-12-22T01:19:59.612Z,98899.34
2022-12-22T01:22:45.605Z,98882.25
2022-12-22T01:25:32.814Z,98891.94
2022-12-22T01:28:18.549Z,98882.09
2022-12-22T01:31:04.915Z,98883.31
2022-12-22T01:33:50.690Z,98883.50
2022-12-22T01:36:36.174Z,98876.00
2022-12-22T01:39:21.349Z,98876.19
2022-12-22T01:42:07.269Z,98871.06
2022-12-22T01:44:52.434Z,98884.66
2022-12-22T01:48:00.185Z,98882.09
2022-12-22T01:50:48.157Z,98873.78
2022-12-22T01:53:37.457Z,98866.22
2022-12-22T01:56:22.814Z,98866.97
2022-12-22T01:59:10.677Z,98867.22
2022-12-22T02:01:55.815Z,98860.22
2022-12-22T02:04:45.568Z,98859.56
2022-12-22T02:07:40.679Z,98859.41
2022-12-22T02:10:37.708Z,98850.03
2022-12-22T02:13:33.925Z,98854.19
2022-12-22T02:16:27.412Z,98825.75
2022-12-22T02:19:16.251Z,98851.41
2022-12-22T02:22:13.463Z,98838.63
2022-12-22T02:25:02.975Z,98842.91
2022-12-22T02:27:53.043Z,98831.84
2022-12-22T02:30:38.574Z,98811.69
2022-12-22T02:33:25.386Z,98817.28
2022-12-22T02:36:17.801Z,98807.31
2022-12-22T02:39:08.252Z,98807.47
2022-12-22T02:42:02.918Z,98795.28
2022-12-22T02:44:57.224Z,98784.25
2022-12-22T02:47:48.179Z,98796.09
2022-12-22T02:50:38.262Z,98787.16
2022-12-22T02:53:24.557Z,98787.22
2022-12-22T02:56:16.500Z,98780.09
2022-12-22T02:59:02.210Z,98778.47
2022-12-22T03:01:49.319Z,98772.16
2022-12-22T03:04:34.472Z,98776.03
2022-12-22T03:07:20.465Z,98784.41
2022-12-22T03:10:05.636Z,98768.47
2022-12-22T03:12:50.854Z,98761.53
2022-12-22T03:15:35.908Z,98754.69
2022-12-22T03:18:23.903Z,98755.28
2022-12-22T03:21:09.805Z,98728.53
2022-12-22T03:23:55.201Z,98742.63
2022-12-22T03:26:23.001Z,98732.38
2022-12-22T03:28:50.696Z,98729.22
2022-12-22T03:31:18.725Z,98736.47
2022-12-22T03:33:47.775Z,98739.72
2022-12-22T03:36:15.274Z,98714.41
2022-12-22T03:38:42.878Z,98726.31
2022-12-22T03:41:30.922Z,98732.31
2022-12-22T03:44:18.321Z,98723.88
2022-12-22T03:46:45.914Z,98723.63
2022-12-22T03:49:16.203Z,98728.38
2022-12-22T03:51:47.712Z,98708.13
2022-12-22T03:54:17.158Z,98712.06
2022-12-22T03:56:45.282Z,98688.06
2022-12-22T03:59:13.224Z,98684.63
2022-12-22T04:01:42.806Z,98705.72
2022-12-22T04:04:11.122Z,98686.59
2022-12-22T04:06:40.343Z,98702.44
2022-12-22T04:09:08.474Z,98699.22
2022-12-22T04:11:54.086Z,98696.75
2022-12-22T04:14:21.898Z,98691.03
2022-12-22T04:16:49.601Z,98677.56
2022-12-22T04:19:17.348Z,98680.16
2022-12-22T04:21:46.252Z,98643.19
2022-12-22T04:24:14.224Z,98677.81
2022-12-22T04:26:41.794Z,98668.78
2022-12-22T04:29:09.369Z,98663.44
2022-12-22T04:31:37.209Z,98674.34
2022-12-22T04:34:05.121Z,98676.22
2022-12-22T04:36:34.909Z,98669.47
2022-12-22T04:39:04.212Z,98671.34
2022-12-22T04:41:31.969Z,98668.66
2022-12-22T04:43:59.744Z,98677.84
2022-12-22T04:46:27.550Z,98663.69
2022-12-22T04:49:00.347Z,98656.34
2022-12-22T04:51:28.395Z,98648.44
2022-12-22T04:53:57.505Z,98640.19
2022-12-22T04:56:26.730Z,98634.09
2022-12-22T04:58:54.365Z,98639.59
2022-12-22T05:01:22.203Z,98634.34
2022-12-22T05:03:50.183Z,98625.78
2022-12-22T05:06:17.757Z,98624.16
2022-12-22T05:08:45.425Z,98624.97
2022-12-22T05:11:13.200Z,98612.28
2022-12-22T05:13:42.045Z,98618.78
2022-12-22T05:16:11.480Z,98615.88
2022-12-22T05:18:41.524Z,98596.91
2022-12-22T05:21:13.389Z,98606.28
2022-12-22T05:23:41.108Z,98602.41
2022-12-22T05:26:09.601Z,98607.31
2022-12-22T05:28:37.422Z,98596.13
2022-12-22T05:31:08.586Z,98595.13
2022-12-22T05:33:36.585Z,98609.84
2022-12-22T05:36:04.813Z,98591.47
2022-12-22T05:38:32.647Z,98576.53
2022-12-22T05:41:04.286Z,98570.25
2022-12-22T05:43:32.611Z,98595.97
2022-12-22T05:46:02.846Z,98593.09
2022-12-22T05:48:37.900Z,98587.41
2022-12-22T05:51:06.803Z,98589.16
2022-12-22T05:53:34.624Z,98589.75
2022-12-22T05:56:02.165Z,98583.84
2022-12-22T05:58:29.949Z,98590.88
2022-12-22T06:00:58.978Z,98588.22
2022-12-22T06:03:27.057Z,98582.44
2022-12-22T06:05:56.401Z,98565.91
2022-12-22T06:08:24.210Z,98584.09
2022-12-22T06:10:52.403Z,98578.81
2022-12-22T06:13:19.937Z,98574.72
2022-12-22T06:15:49.201Z,98580.00
2022-12-22T06:18:16.972Z,98574.22
2022-12-22T06:20:46.349Z,98570.34
2022-12-22T06:23:15.255Z,98574.06
2022-12-22T06:25:45.203Z,98567.56
2022-12-22T06:28:12.769Z,98562.50
2022-12-22T06:30:40.730Z,98557.38
2022-12-22T06:33:08.381Z,98558.00
2022-12-22T06:35:37.882Z,98564.53
2022-12-22T06:38:07.698Z,98552.88
2022-12-22T06:40:36.687Z,98560.25
2022-12-22T06:43:10.082Z,98558.22
2022-12-22T06:45:39.420Z,98551.69
2022-12-22T06:48:07.734Z,98561.69
2022-12-22T06:50:35.875Z,98560.66
2022-12-22T06:53:03.822Z,98563.31
2022-12-22T06:55:31.698Z,98561.44
2022-12-22T06:58:00.684Z,98567.41
2022-12-22T07:00:28.335Z,98571.66
2022-12-22T07:02:56.209Z,98567.78
2022-12-22T07:05:25.686Z,98569.25
2022-12-22T07:07:54.087Z,98573.53
2022-12-22T07:10:42.027Z,98570.03
2022-12-22T07:13:20.498Z,98571.88
2022-12-22T07:15:55.278Z,98560.88
2022-12-22T07:18:27.079Z,98566.38
2022-12-22T07:20:55.468Z,98569.03
2022-12-22T07:23:23.015Z,98566.56
2022-12-22T07:25:50.605Z,98558.81
2022-12-22T07:28:21.309Z,98576.00
2022-12-22T07:30:50.444Z,98577.59
2022-12-22T07:33:18.538Z,98579.22
2022-12-22T07:35:46.307Z,98568.22
2022-12-22T07:38:14.438Z,98577.81
2022-12-22T07:40:43.593Z,98578.25
2022-12-22T07:43:11.523Z,98572.91
2022-12-22T07:45:40.409Z,98579.03
2022-12-22T07:48:28.269Z,98571.66
2022-12-22T07:50:56.140Z,98592.13
2022-12-22T07:53:23.803Z,98588.44
2022-12-22T07:55:51.339Z,98593.91
2022-12-22T07:58:18.927Z,98590.03
2022-12-22T08:00:48.282Z,98586.19
2022-12-22T08:03:18.495Z,98588.66
2022-12-22T08:05:46.195Z,98598.84
2022-12-22T08:08:13.859Z,98605.78
2022-12-22T08:10:41.410Z,98605.81
2022-12-22T08:13:09.028Z,98600.09
2022-12-22T08:15:38.041Z,98609.50
2022-12-22T08:18:07.262Z,98578.63
2022-12-22T08:20:36.364Z,98609.09
2022-12-22T08:23:04.031Z,98609.28
2022-12-22T08:25:32.206Z,98611.53
2022-12-22T08:28:00.153Z,98619.91
2022-12-22T08:30:29.237Z,98620.91
2022-12-22T08:32:57.192Z,98617.66
2022-12-22T08:35:26.422Z,98626.03
2022-12-22T08:37:54.462Z,98621.13
2022-12-22T08:40:24.511Z,98616.00
2022-12-22T08:42:54.323Z,98622.97
2022-12-22T08:45:21.930Z,98614.19
2022-12-22T08:47:49.628Z,98625.63
2022-12-22T08:50:17.535Z,98631.53
2022-12-22T08:52:46.603Z,98628.66
2022-12-22T08:55:14.412Z,98629.66
2022-12-22T08:57:42.019Z,98624.34
2022-12-22T09:00:13.306Z,98642.75
2022-12-22T09:02:41.123Z,98651.16
2022-12-22T09:05:09.767Z,98657.94
2022-12-22T09:07:37.364Z,98660.31
2022-12-22T09:10:07.269Z,98668.50
2022-12-22T09:12:35.542Z,98677.84
2022-12-22T09:15:03.088Z,98680.59
2022-12-22T09:17:30.553Z,98683.66
2022-12-22T09:19:58.077Z,98683.28
2022-12-22T09:22:28.546Z,98682.94
2022-12-22T09:24:56.522Z,98684.00
2022-12-22T09:27:25.461Z,98682.16
2022-12-22T09:29:52.946Z,98689.34
2022-12-22T09:32:20.475Z,98676.28
2022-12-22T09:34:48.693Z,98682.25
2022-12-22T09:37:16.437Z,98683.88
2022-12-22T09:39:43.940Z,98688.19
2022-12-22T09:42:13.852Z,98693.28
2022-12-22T09:44:45.680Z,98704.69
2022-12-22T09:47:19.123Z,98704.09
2022-12-22T09:49:46.842Z,98710.44
2022-12-22T09:52:24.078Z,98707.72
2022-12-22T09:54:52.155Z,98708.38
2022-12-22T09:57:20.350Z,98727.78
2022-12-22T09:59:49.566Z,98720.00
2022-12-22T10:02:27.038Z,98730.88
2022-12-22T10:05:04.637Z,98722.09
2022-12-22T10:07:34.242Z,98729.03
2022-12-22T10:10:07.404Z,98730.06
2022-12-22T10:12:34.922Z,98742.56
2022-12-22T10:15:03.952Z,98734.78
2022-12-22T10:17:32.890Z,98722.50
2022-12-22T10:20:22.339Z,98734.88
2022-12-22T10:22:51.472Z,98732.66
2022-12-22T10:25:35.797Z,98742.22
2022-12-22T10:28:20.946Z,98742.31
2022-12-22T10:30:49.747Z,98748.69
2022-12-22T10:33:19.869Z,98742.53
2022-12-22T10:35:50.700Z,98759.09
2022-12-22T10:38:26.605Z,98764.22
2022-12-22T10:41:01.832Z,98768.53
2022-12-22T10:43:33.162Z,98749.94
2022-12-22T10:46:03.268Z,98766.28
2022-12-22T10:48:32.290Z,98757.50
2022-12-22T10:51:00.734Z,98774.03
2022-12-22T10:53:47.858Z,98785.88
2022-12-22T10:56:22.284Z,98796.53
2022-12-22T10:58:51.939Z,98805.13
2022-12-22T11:01:30.652Z,98806.94
2022-12-22T11:03:59.501Z,98823.50
2022-12-22T11:06:27.048Z,98819.63
2022-12-22T11:09:05.648Z,98821.78
2022-12-22T11:11:47.958Z,98811.50
2022-12-22T11:14:24.774Z,98814.34
2022-12-22T11:16:57.663Z,98835.63
2022-12-22T11:19:38.096Z,98832.94
2022-12-22T11:22:12.110Z,98798.94
2022-12-22T11:24:45.003Z,98822.44
2022-12-22T11:27:27.788Z,98839.16
2022-12-22T11:30:09.198Z,98848.44
2022-12-22T11:32:52.363Z,98837.38
2022-12-22T11:35:27.887Z,98852.25
2022-12-22T11:38:01.598Z,98853.75
2022-12-22T11:40:33.308Z,98859.53
2022-12-22T11:43:14.044Z,98845.41
2022-12-22T11:45:48.537Z,98853.34
2022-12-22T11:48:52.280Z,98858.34
2022-12-22T11:51:28.605Z,98875.84
2022-12-22T11:54:16.239Z,98859.25
2022-12-22T11:56:45.655Z,98850.69
2022-12-22T11:59:30.989Z,98865.19
2022-12-22T12:02:33.966Z,98864.81
2022-12-22T12:05:16.529Z,98867.22
2022-12-22T12:07:46.642Z,98874.38
2022-12-22T12:10:18.135Z,98880.25
2022-12-22T12:12:52.731Z,98849.13
2022-12-22T12:15:28.795Z,98871.03
2022-12-22T12:18:12.484Z,98874.94
2022-12-22T12:20:47.290Z,98882.16
2022-12-22T12:23:23.924Z,98896.25
2022-12-22T12:25:58.560Z,98907.72
2022-12-22T12:28:35.707Z,98916.34
2022-12-22T12:31:05.703Z,98916.91
2022-12-22T12:33:38.018Z,98918.50
2022-12-22T12:36:14.119Z,98922.94
2022-12-22T12:41:41.003Z,98933.38
2022-12-22T12:44:16.181Z,98944.94
2022-12-22T12:46:56.903Z,98940.44
2022-12-22T12:49:53.356Z,98947.50
2022-12-22T12:53:16.444Z,98942.41
2022-12-22T12:56:03.075Z,98946.72
2022-12-22T12:58:54.680Z,98952.31
2022-12-22T13:01:55.769Z,98957.78
2022-12-22T13:05:10.453Z,98948.09
2022-12-22T13:08:06.657Z,98941.34
2022-12-22T13:10:35.644Z,98943.84
2022-12-22T13:13:04.740Z,98932.47
2022-12-22T13:15:34.002Z,98932.16
2022-12-22T13:18:03.032Z,98939.44
2022-12-22T13:20:32.685Z,98954.88
2022-12-22T13:23:01.758Z,98951.91
2022-12-22T13:25:41.461Z,98963.59
2022-12-22T13:28:15.995Z,98935.69
2022-12-22T13:30:47.222Z,98957.97
2022-12-22T13:33:17.189Z,98949.69
2022-12-22T13:35:48.521Z,98958.31
2022-12-22T13:38:30.465Z,98964.16
2022-12-22T13:40:58.948Z,98970.69
2022-12-22T13:43:28.731Z,98973.22
2022-12-22T13:45:57.271Z,98960.31
2022-12-22T13:48:27.013Z,98980.06
2022-12-22T13:50:56.671Z,98983.78
2022-12-22T13:54:06.547Z,98978.47
2022-12-22T13:56:18.589Z,98982.41
2022-12-22T13:58:48.185Z,98992.00
2022-12-22T14:01:18.589Z,98971.19
2022-12-22T14:04:04.641Z,98995.19
2022-12-22T14:06:34.043Z,98996.84
2022-12-22T14:09:12.520Z,98990.63
2022-12-22T14:11:44.093Z,98988.91
2022-12-22T14:14:19.644Z,98991.81
2022-12-22T14:16:49.476Z,98992.19
2022-12-22T14:19:17.845Z,98996.31
2022-12-22T14:21:47.427Z,98993.09
2022-12-22T14:24:18.029Z,99010.56
2022-12-22T14:26:45.861Z,99017.19
2022-12-22T14:29:16.681Z,99015.03
2022-12-22T14:31:55.350Z,99018.88
2022-12-22T14:34:27.465Z,99029.25
2022-12-22T14:36:54.963Z,99021.31
2022-12-22T14:39:24.694Z,99031.38
2022-12-22T14:41:54.208Z,99030.53
2022-12-22T14:44:24.511Z,99038.13
2022-12-22T14:47:15.897Z,99031.44
2022-12-22T14:49:46.229Z,99029.66
2022-12-22T14:52:21.221Z,99040.81
2022-12-22T14:54:50.006Z,99040.34
2022-12-22T14:57:21.494Z,99047.31
2022-12-22T15:00:01.184Z,99052.97
2022-12-22T15:02:38.330Z,99052.84
2022-12-22T15:05:13.031Z,99040.31
2022-12-22T15:10:39.804Z,99039.13
2022-12-22T15:13:08.673Z,99028.75
2022-12-22T15:15:37.541Z,99042.53
2022-12-22T15:18:05.156Z,99043.56
2022-12-22T15:20:38.967Z,99032.16
2022-12-22T15:23:11.540Z,99027.97
2022-12-22T15:25:39.035Z,99042.34
2022-12-22T15:28:06.547Z,99028.81
2022-12-22T15:30:34.124Z,99040.56
2022-12-22T15:33:03.282Z,99040.72
2022-12-22T15:35:32.551Z,99045.69
2022-12-22T15:38:00.660Z,99048.56
2022-12-22T15:40:29.311Z,99041.31
2022-12-22T15:42:56.894Z,99036.16
2022-12-22T15:45:24.524Z,99037.59
2022-12-22T15:47:53.708Z,99052.34
2022-12-22T15:50:28.581Z,99049.09
2022-12-22T15:52:58.908Z,99055.81
2022-12-22T15:55:26.984Z,99066.59
2022-12-22T15:57:58.068Z,99063.03
2022-12-22T16:00:26.096Z,99059.44
2022-12-22T16:02:53.782Z,99051.09
2022-12-22T16:05:22.998Z,99049.16
2022-12-22T16:07:50.509Z,99059.03
2022-12-22T16:10:24.398Z,99046.84
2022-12-22T16:12:59.835Z,99028.97
2022-12-22T16:15:28.271Z,99048.22
2022-12-22T16:17:55.809Z,99038.00
2022-12-22T16:20:25.155Z,99026.81
2022-12-22T16:22:52.928Z,99030.75
2022-12-22T16:25:23.974Z,99032.34
2022-12-22T16:27:51.541Z,99022.16
2022-12-22T16:30:22.128Z,99017.69
2022-12-22T16:32:49.874Z,99015.00
2022-12-22T16:35:19.560Z,99020.94
2022-12-22T16:37:49.837Z,99019.09
2022-12-22T16:40:18.062Z,99014.50
2022-12-22T16:45:37.205Z,99007.41
2022-12-22T16:48:07.556Z,99009.06
2022-12-22T16:50:35.080Z,99007.69
2022-12-22T16:53:05.496Z,99010.50
2022-12-22T16:55:33.362Z,99000.84
2022-12-22T16:58:00.865Z,98999.66
2022-12-22T17:00:30.749Z,98994.69
2022-12-22T17:03:00.357Z,98985.59
2022-12-22T17:05:30.735Z,98984.09
2022-12-22T17:07:59.451Z,98980.31
2022-12-22T17:10:28.276Z,98984.22
2022-12-22T17:12:56.976Z,98974.13
2022-12-22T17:15:24.942Z,98971.28
2022-12-22T17:17:53.238Z,98963.31
2022-12-22T17:20:22.810Z,98946.59
2022-12-22T17:22:52.602Z,98947.13
2022-12-22T17:25:22.152Z,98957.38
2022-12-22T17:27:51.372Z,98962.84
2022-12-22T17:30:21.214Z,98961.34
2022-12-22T17:32:49.753Z,98969.28
2022-12-22T17:35:18.901Z,98969.38
2022-12-22T17:37:47.259Z,98961.34
2022-12-22T17:40:22.882Z,98967.56
2022-12-22T17:42:52.001Z,98926.53
2022-12-22T17:45:20.017Z,98949.53
2022-12-22T17:47:48.018Z,98956.75
2022-12-22T17:50:17.165Z,98951.19
2022-12-22T17:52:45.372Z,98933.75
2022-12-22T17:55:49.842Z,98954.69
2022-12-22T17:58:11.358Z,98940.72
2022-12-22T18:00:38.880Z,98941.03
2022-12-22T18:03:06.531Z,98937.69
2022-12-22T18:05:40.462Z,98926.53
2022-12-22T18:08:12.471Z,98937.22
2022-12-22T18:10:41.209Z,98930.28
2022-12-22T18:13:15.315Z,98923.91
2022-12-22T18:15:42.883Z,98923.72
2022-12-22T18:18:13.768Z,98920.19
2022-12-22T18:20:44.189Z,98928.00
2022-12-22T18:23:17.243Z,98914.97
2022-12-22T18:25:45.237Z,98916.53
2022-12-22T18:28:15.769Z,98920.53
2022-12-22T18:30:43.543Z,98906.59
2022-12-22T18:33:11.109Z,98914.31
2022-12-22T18:35:39.035Z,98896.72
2022-12-22T18:38:07.149Z,98904.56
2022-12-22T18:40:37.138Z,98897.34
2022-12-22T18:43:07.507Z,98878.47
2022-12-22T18:45:37.497Z,98881.38
2022-12-22T18:48:05.265Z,98882.22
2022-12-22T18:50:33.796Z,98886.59
2022-12-22T18:53:04.232Z,98874.13
2022-12-22T18:55:33.655Z,98881.50
2022-12-22T18:58:01.438Z,98858.31
2022-12-22T19:00:30.350Z,98876.28
2022-12-22T19:03:01.015Z,98861.75
2022-12-22T19:05:30.668Z,98846.56
2022-12-22T19:07:59.132Z,98856.69
2022-12-22T19:10:30.292Z,98851.19
2022-12-22T19:12:58.674Z,98838.78
2022-12-22T19:15:29.907Z,98852.47
2022-12-22T19:17:59.398Z,98832.25
2022-12-22T19:20:27.311Z,98839.38
2022-12-22T19:22:55.277Z,98837.53
2022-12-22T19:25:24.595Z,98845.53
2022-12-22T19:27:53.857Z,98813.53
2022-12-22T19:30:24.219Z,98821.13
2022-12-22T19:32:56.180Z,98820.84
2022-12-22T19:35:25.663Z,98817.91
2022-12-22T19:37:54.583Z,98810.16
2022-12-22T19:40:24.731Z,98812.59
2022-12-22T19:42:55.036Z,98801.84
2022-12-22T19:45:25.857Z,98791.03
2022-12-22T19:47:54.239Z,98800.56
2022-12-22T19:50:24.228Z,98789.97
2022-12-22T19:52:53.497Z,98793.06
2022-12-22T19:55:21.637Z,98783.31
2022-12-22T19:57:50.972Z,98773.25
2022-12-22T20:00:20.260Z,98769.63
2022-12-22T20:02:49.727Z,98770.53
2022-12-22T20:05:32.724Z,98770.66
2022-12-22T20:08:02.811Z,98763.13
2022-12-22T20:10:32.207Z,98771.69
2022-12-22T20:13:03.089Z,98767.31
2022-12-22T20:15:32.713Z,98764.66
2022-12-22T20:18:00.295Z,98751.06
2022-12-22T20:20:33.475Z,98755.22
2022-12-22T20:23:04.689Z,98753.53
2022-12-22T20:25:37.388Z,98746.59
2022-12-22T20:28:10.035Z,98741.63
2022-12-22T20:30:37.837Z,98738.97
2022-12-22T20:33:05.466Z,98727.09
2022-12-22T20:35:32.964Z,98727.00
2022-12-22T20:38:01.830Z,98732.09
2022-12-22T20:40:32.240Z,98731.56
2022-12-22T20:42:59.856Z,98734.50
2022-12-22T20:45:28.817Z,98724.53
2022-12-22T20:47:56.626Z,98715.00
2022-12-22T20:50:26.411Z,98721.88
2022-12-22T20:52:54.759Z,98709.28
2022-12-22T20:55:26.281Z,98703.22
2022-12-22T20:57:54.145Z,98712.28
2022-12-22T21:00:23.555Z,98712.88
2022-12-22T21:02:51.455Z,98689.88
2022-12-22T21:05:20.907Z,98711.59
2022-12-22T21:07:50.329Z,98692.63
2022-12-22T21:10:19.560Z,98699.72
2022-12-22T21:12:48.637Z,98695.34
2022-12-22T21:15:20.825Z,98704.66
2022-12-22T21:17:56.013Z,98705.94
2022-12-22T21:20:27.819Z,98709.56
2022-12-22T21:22:55.317Z,98698.00
2022-12-22T21:25:23.102Z,98697.78
2022-12-22T21:27:52.677Z,98699.25
2022-12-22T21:30:21.963Z,98685.59
2022-12-22T21:32:50.052Z,98694.72
2022-12-22T21:35:18.927Z,98688.81
2022-12-22T21:37:47.681Z,98689.94
2022-12-22T21:40:20.521Z,98683.78
2022-12-22T21:42:48.241Z,98661.25
2022-12-22T21:45:19.038Z,98677.44
2022-12-22T21:47:46.660Z,98683.13
2022-12-22T21:50:20.947Z,98687.66
2022-12-22T21:52:51.675Z,98671.53
2022-12-22T21:55:20.616Z,98677.28
2022-12-22T21:57:48.520Z,98679.50
2022-12-22T22:00:19.110Z,98676.44
2022-12-22T22:02:47.382Z,98668.28
2022-12-22T22:05:23.449Z,98675.16
2022-12-22T22:07:51.600Z,98636.50
2022-12-22T22:10:19.713Z,98655.84
2022-12-22T22:12:47.456Z,98648.56
2022-12-22T22:15:16.692Z,98643.38
2022-12-22T22:17:44.684Z,98651.44
2022-12-22T22:20:15.257Z,98660.00
2022-12-22T22:22:43.014Z,98641.41
2022-12-22T22:25:11.580Z,98651.09
2022-12-22T22:27:44.278Z,98642.34
2022-12-22T22:30:18.261Z,98647.47
2022-12-22T22:32:46.021Z,98647.44
2022-12-22T22:35:13.855Z,98646.84
2022-12-22T22:37:41.615Z,98647.13
2022-12-22T22:40:11.568Z,98648.22
2022-12-22T22:42:39.381Z,98626.38
2022-12-22T22:45:08.279Z,98634.00
2022-12-22T22:47:38.455Z,98641.09
2022-12-22T22:50:08.739Z,98639.69
2022-12-22T22:52:36.986Z,98626.44
2022-12-22T22:55:04.833Z,98636.63
2022-12-22T22:57:32.354Z,98618.25
2022-12-22T22:59:59.862Z,98636.28
2022-12-22T23:02:27.610Z,98628.13
2022-12-22T23:04:56.544Z,98642.22
2022-12-22T23:07:24.108Z,98638.97
2022-12-22T23:09:51.563Z,98636.34
2022-12-22T23:12:19.118Z,98632.06
2022-12-22T23:14:46.866Z,98638.31
2022-12-22T23:17:14.361Z,98628.56
2022-12-22T23:19:41.913Z,98639.41
2022-12-22T23:22:10.776Z,98633.47
2022-12-22T23:24:38.299Z,98635.34
2022-12-22T23:27:05.860Z,98623.06
2022-12-22T23:29:33.424Z,98629.81
2022-12-22T23:32:01.060Z,98628.81
2022-12-22T23:34:28.728Z,98601.03
2022-12-22T23:36:56.375Z,98629.63
2022-12-22T23:39:25.372Z,98627.97
2022-12-22T23:41:52.915Z,98609.81
2022-12-22T23:44:20.460Z,98626.19
2022-12-22T23:46:48.034Z,98631.09
2022-12-22T23:49:15.776Z,98628.25
2022-12-22T23:51:43.271Z,98631.72
2022-12-22T23:54:10.764Z,98630.25
2022-12-22T23:56:39.539Z,98631.50
2022-12-22T23:59:07.036Z,98628.66
